Accueil
METAR-TAF:

METAR-TAF

Aéroports :

Aéroport international Mataveri

Île de Pâques, Chili

latitude: 27-09S, longitude: 109-25W, altitude: 51 m

Observation

Le bulletin a été fait il y a 26 minutes, à 01:00 UTC
Vent 6 kt de sud, variant entre sud/sud-est et sud/sud-ouest
Température 18°C
Humidité 88%
Pression 1019 hPa
Visibilité 10 km ou plus
Quelques nuages à une hauteur de 1300 ft
Nuages fragmentés à une hauteur de 2000 ft

METAR: SCIP 230100Z 18006KT 150V210 9999 FEW013 BKN020 18/16 Q1019 NOSIG

Heure: 19:26 (01:26 UTC)

Prévision

Le bulletin a été fait il y a 2 heures et 31 minutes, à 22:55 UTC
Prévision valable du 23 à 00 UTC au 24 à 00 UTC
Vent 9 kt de sud
Visibilité 10 km ou plus
Quelques nuages à une hauteur de 1500 ft
Nuages fragmentés à une hauteur de 3000 ft

TAF: SCIP 222255Z 2300/2400 19009KT 9999 FEW015 BKN030 TN16/2311Z TX21/2320Z

Observations et prévisions météorologiques de plus de 4000 aéroports (messages METAR et TAF).

Les stations disponibles sont représentées par des disques jaunes et rouges sur la carte.

Passer la souris dessus pour voir le nom de la station.

Cliquer dessus pour voir les observations et prévisions météorologiques.

Pour changer de carte: cliquez sur les boutons verts avec une croix noire pour zoomer, sur le bouton vert avec un tiret pour effectuer un zoom arrière, ou sur les flèches vertes pour les cartes adjacentes.


METAR-TAF: